Time;durP1;ratioP1;P1;durP2;ratioP2;P2;SDS_P1;SDS_P2;PMS_P1;PMS_P2;Temp;Humidity;BMP_temperature;BMP_pressure;BME280_temperature;BME280_humidity;BME280_pressure;Samples;Min_cycle;Max_cycle;Signal;HPM_P1;HPM_P2
2022/02/20 17:38:23;;;;;;;3.40;0.70;;;;;;;;;;5277945;23;20060;-96
2022/02/20 17:40:53;;;;;;;2.05;0.65;;;;;;;;;;5023832;23;20108;-91
2022/02/20 17:54:07;;;;;;;2.17;0.73;;;;;;;;;;5172081;23;20063;-85
2022/02/20 17:56:34;;;;;;;1.35;0.50;;;;;;;;;;4899645;29;20153;-79
2022/02/20 17:59:02;;;;;;;2.58;1.15;;;;;;;;;;4898110;29;20085;-78
2022/02/20 18:01:29;;;;;;;3.55;1.10;;;;;;;;;;4899386;29;20021;-81
2022/02/20 18:03:55;;;;;;;2.38;1.20;;;;;;;;;;4882652;29;20036;-77
2022/02/20 18:06:21;;;;;;;1.52;0.70;;;;;;;;;;4882994;29;20051;-79
2022/02/20 18:08:53;;;;;;;1.67;0.60;;;;;;;;;;4883169;29;20119;-79
2022/02/20 18:11:20;;;;;;;5.30;2.00;;;;;;;;;;4899906;29;20033;-80
2022/02/20 18:13:46;;;;;;;4.47;1.90;;;;;;;;;;4900813;29;20033;-84
2022/02/20 18:16:13;;;;;;;2.90;1.10;;;;;;;;;;4875430;29;20119;-82
2022/02/20 18:18:39;;;;;;;4.25;1.40;;;;;;;;;;4886351;29;20089;-78
2022/02/20 18:21:06;;;;;;;3.47;1.13;;;;;;;;;;4880207;29;20025;-77
2022/02/20 18:23:33;;;;;;;2.05;0.90;;;;;;;;;;4880333;29;20112;-79
2022/02/20 18:25:59;;;;;;;3.47;1.20;;;;;;;;;;4880786;29;20044;-80
2022/02/20 18:28:25;;;;;;;3.05;1.40;;;;;;;;;;4880727;29;20090;-78
2022/02/20 18:30:54;;;;;;;2.95;1.40;;;;;;;;;;4880276;29;20036;-77
2022/02/20 18:33:21;;;;;;;3.58;1.20;;;;;;;;;;4880183;29;20116;-80
2022/02/20 18:35:47;;;;;;;4.63;1.83;;;;;;;;;;4880757;29;20043;-82
2022/02/20 18:38:13;;;;;;;4.72;1.80;;;;;;;;;;4880287;29;20122;-81
2022/02/20 18:40:40;;;;;;;4.18;1.92;;;;;;;;;;4865732;29;20121;-79
2022/02/20 18:43:06;;;;;;;4.70;2.00;;;;;;;;;;4842675;29;20050;-85
2022/02/20 18:45:32;;;;;;;7.15;2.75;;;;;;;;;;4827688;29;20030;-77
2022/02/20 18:47:59;;;;;;;8.27;2.72;;;;;;;;;;4827324;29;20030;-86
2022/02/20 18:50:25;;;;;;;6.55;2.55;;;;;;;;;;4856835;29;20109;-80
2022/02/20 18:52:51;;;;;;;7.38;3.05;;;;;;;;;;4844892;29;20456;-78
2022/02/20 18:55:17;;;;;;;8.80;3.28;;;;;;;;;;4861925;29;20033;-78
2022/02/20 18:57:43;;;;;;;10.95;2.72;;;;;;;;;;4844865;29;20075;-81
2022/02/20 19:00:10;;;;;;;7.63;2.72;;;;;;;;;;4861195;29;20116;-79
2022/02/20 19:02:36;;;;;;;6.22;2.47;;;;;;;;;;4844015;29;20041;-78
2022/02/20 19:05:03;;;;;;;5.30;2.78;;;;;;;;;;4860679;29;20506;-78
2022/02/20 19:07:29;;;;;;;7.47;2.22;;;;;;;;;;4859403;29;20101;-78
2022/02/20 19:09:56;;;;;;;7.03;2.92;;;;;;;;;;4860034;29;20394;-80
2022/02/20 19:12:23;;;;;;;10.05;3.00;;;;;;;;;;4844281;29;20032;-80
2022/02/20 19:14:49;;;;;;;4.85;2.50;;;;;;;;;;4844067;29;20034;-80
2022/02/20 19:17:15;;;;;;;6.72;2.97;;;;;;;;;;4844163;29;20482;-80
2022/02/20 19:19:41;;;;;;;7.75;3.03;;;;;;;;;;4860966;29;20029;-80
2022/02/20 19:22:07;;;;;;;11.13;3.25;;;;;;;;;;4860845;29;20113;-79
2022/02/20 19:24:34;;;;;;;5.93;3.05;;;;;;;;;;4844565;29;20026;-77
2022/02/20 19:27:01;;;;;;;6.20;2.92;;;;;;;;;;4844382;29;20372;-77
2022/02/20 19:29:29;;;;;;;8.80;3.35;;;;;;;;;;4844558;29;20078;-78
2022/02/20 19:31:56;;;;;;;10.15;3.17;;;;;;;;;;4847106;29;20040;-79
2022/02/20 19:34:23;;;;;;;5.15;3.28;;;;;;;;;;4866665;29;20026;-79
2022/02/20 19:36:52;;;;;;;5.93;3.38;;;;;;;;;;4851642;29;20073;-80
2022/02/20 19:39:23;;;;;;;8.40;3.22;;;;;;;;;;4848112;29;20071;-80
2022/02/20 19:41:49;;;;;;;6.00;3.38;;;;;;;;;;4847617;29;20491;-80
2022/02/20 19:44:15;;;;;;;7.55;3.70;;;;;;;;;;4847335;29;20078;-79
2022/02/20 19:46:41;;;;;;;7.13;3.10;;;;;;;;;;4861411;29;20117;-79
2022/02/20 19:49:07;;;;;;;7.30;3.45;;;;;;;;;;4830867;29;20037;-80
2022/02/20 19:51:34;;;;;;;7.85;3.65;;;;;;;;;;4845803;29;20026;-81
2022/02/20 19:54:04;;;;;;;6.20;3.30;;;;;;;;;;4858348;29;20056;-80
2022/02/20 19:56:30;;;;;;;7.20;3.47;;;;;;;;;;4847347;29;20041;-80
2022/02/20 19:58:57;;;;;;;5.70;3.40;;;;;;;;;;4847333;29;20734;-81
2022/02/20 20:01:24;;;;;;;7.90;3.50;;;;;;;;;;4846691;29;20474;-81
2022/02/20 20:03:50;;;;;;;9.50;3.67;;;;;;;;;;4847073;29;20304;-80
2022/02/20 20:06:17;;;;;;;6.13;3.30;;;;;;;;;;4847272;29;20040;-80
2022/02/20 20:08:43;;;;;;;6.80;3.50;;;;;;;;;;4863916;29;20041;-79
2022/02/20 20:11:10;;;;;;;7.28;3.70;;;;;;;;;;4847348;29;20044;-79
2022/02/20 20:13:40;;;;;;;6.57;3.50;;;;;;;;;;4846442;29;20026;-80
2022/02/20 20:16:06;;;;;;;7.18;3.00;;;;;;;;;;4863772;29;20510;-80
2022/02/20 20:18:34;;;;;;;9.18;3.17;;;;;;;;;;4849794;29;20454;-79
2022/02/20 20:21:00;;;;;;;7.43;3.40;;;;;;;;;;4856287;29;20032;-80
2022/02/20 20:23:27;;;;;;;6.95;3.22;;;;;;;;;;4873699;29;20028;-77
2022/02/20 20:25:53;;;;;;;6.43;2.97;;;;;;;;;;4871262;29;20022;-79
2022/02/20 20:28:19;;;;;;;5.53;2.90;;;;;;;;;;4846842;29;20040;-79
2022/02/20 20:30:45;;;;;;;5.95;3.28;;;;;;;;;;4863406;29;20483;-79
2022/02/20 20:33:12;;;;;;;8.80;3.33;;;;;;;;;;4846454;29;20037;-80
2022/02/20 20:35:38;;;;;;;8.23;3.20;;;;;;;;;;4846385;29;20387;-78
2022/02/20 20:38:04;;;;;;;6.63;3.10;;;;;;;;;;4846587;29;20029;-77
2022/02/20 20:40:32;;;;;;;5.63;2.72;;;;;;;;;;4846555;29;20089;-78
2022/02/20 20:42:59;;;;;;;7.05;3.08;;;;;;;;;;4845621;29;20030;-79
2022/02/20 20:45:27;;;;;;;9.23;3.03;;;;;;;;;;4846370;29;20064;-79
2022/02/20 20:47:53;;;;;;;5.10;2.78;;;;;;;;;;4846466;29;20423;-79
2022/02/20 20:50:20;;;;;;;6.15;2.75;;;;;;;;;;4846654;29;20057;-79
2022/02/20 20:52:48;;;;;;;8.02;2.90;;;;;;;;;;4859807;29;20508;-79
2022/02/20 20:55:14;;;;;;;6.43;2.70;;;;;;;;;;4828056;29;20045;-79
2022/02/20 20:57:41;;;;;;;7.60;3.22;;;;;;;;;;4844737;29;20555;-79
2022/02/20 21:00:08;;;;;;;6.35;3.05;;;;;;;;;;4828385;29;20049;-77
2022/02/20 21:02:34;;;;;;;6.80;3.15;;;;;;;;;;4828095;29;20095;-79
2022/02/20 21:05:00;;;;;;;6.80;2.95;;;;;;;;;;4845428;29;20033;-79
2022/02/20 21:07:26;;;;;;;5.50;2.80;;;;;;;;;;4828751;29;20028;-76
2022/02/20 21:09:52;;;;;;;5.65;2.80;;;;;;;;;;4845125;29;20030;-79
2022/02/20 21:12:18;;;;;;;7.38;3.30;;;;;;;;;;4844782;29;20555;-79
2022/02/20 21:14:45;;;;;;;6.93;3.00;;;;;;;;;;4834106;29;20053;-79
2022/02/20 21:17:11;;;;;;;8.25;3.50;;;;;;;;;;4845143;29;20070;-80
2022/02/20 21:19:39;;;;;;;6.45;2.97;;;;;;;;;;4844754;29;20042;-79
2022/02/20 21:22:06;;;;;;;9.32;3.47;;;;;;;;;;4843584;29;20026;-78
2022/02/20 21:24:32;;;;;;;11.00;4.40;;;;;;;;;;4843960;29;20034;-92
2022/02/20 21:26:58;;;;;;;11.55;4.25;;;;;;;;;;4827563;29;20034;-79
2022/02/20 21:29:24;;;;;;;8.82;4.10;;;;;;;;;;4844004;29;20029;-79
2022/02/20 21:31:51;;;;;;;7.20;4.03;;;;;;;;;;4827343;29;20045;-80
2022/02/20 21:34:17;;;;;;;7.10;4.07;;;;;;;;;;4843591;29;20079;-77
2022/02/20 21:36:44;;;;;;;7.55;3.25;;;;;;;;;;4827036;29;20176;-79
2022/02/20 21:39:11;;;;;;;6.07;2.97;;;;;;;;;;4827199;29;20030;-79
2022/02/20 21:41:37;;;;;;;6.53;3.42;;;;;;;;;;4827109;29;20038;-78
2022/02/20 21:44:03;;;;;;;5.25;2.95;;;;;;;;;;4843410;29;20018;-80
2022/02/20 21:46:31;;;;;;;8.10;3.22;;;;;;;;;;4827020;29;20038;-79
2022/02/20 21:48:57;;;;;;;5.95;3.70;;;;;;;;;;4843234;29;20032;-79
2022/02/20 21:51:23;;;;;;;6.93;3.75;;;;;;;;;;4826972;29;20089;-80
2022/02/20 21:53:49;;;;;;;7.88;3.65;;;;;;;;;;4826737;29;20068;-78
2022/02/20 21:56:16;;;;;;;9.23;3.95;;;;;;;;;;4826871;29;20078;-79
2022/02/20 21:58:42;;;;;;;9.27;4.10;;;;;;;;;;4842875;29;20395;-79
2022/02/20 22:01:08;;;;;;;7.38;3.88;;;;;;;;;;4826686;29;20030;-79
2022/02/20 22:03:34;;;;;;;5.50;3.33;;;;;;;;;;4826706;29;20037;-78
2022/02/20 22:06:00;;;;;;;6.68;3.42;;;;;;;;;;4826809;29;20053;-79
2022/02/20 22:08:26;;;;;;;7.40;3.63;;;;;;;;;;4826561;29;20026;-79
2022/02/20 22:10:56;;;;;;;6.97;3.45;;;;;;;;;;4826579;29;20433;-79
2022/02/20 22:13:23;;;;;;;7.35;3.70;;;;;;;;;;4826963;29;20026;-79
2022/02/20 22:15:49;;;;;;;7.50;3.70;;;;;;;;;;4842960;29;20076;-79
2022/02/20 22:18:16;;;;;;;11.15;3.85;;;;;;;;;;4826426;29;20037;-79
2022/02/20 22:20:42;;;;;;;7.70;3.70;;;;;;;;;;4826693;29;20037;-80
2022/02/20 22:23:08;;;;;;;7.78;3.75;;;;;;;;;;4826776;29;20124;-79
2022/02/20 22:25:34;;;;;;;8.18;4.07;;;;;;;;;;4826521;29;20022;-78
2022/02/20 22:28:01;;;;;;;6.97;3.53;;;;;;;;;;4826655;29;20036;-78
2022/02/20 22:30:27;;;;;;;7.80;3.92;;;;;;;;;;4842501;29;20486;-77
2022/02/20 22:32:53;;;;;;;7.65;3.30;;;;;;;;;;4826670;29;20108;-78
2022/02/20 22:35:19;;;;;;;6.90;3.55;;;;;;;;;;4826544;29;20033;-77
2022/02/20 22:37:46;;;;;;;11.18;4.03;;;;;;;;;;4826433;29;20030;-79
2022/02/20 22:40:12;;;;;;;6.60;3.50;;;;;;;;;;4826271;29;20092;-79
2022/02/20 22:42:39;;;;;;;8.82;3.75;;;;;;;;;;4826519;29;20045;-79
2022/02/20 22:45:05;;;;;;;6.57;3.45;;;;;;;;;;4826369;29;20117;-79
2022/02/20 22:47:32;;;;;;;8.57;3.85;;;;;;;;;;4826506;29;20029;-79
2022/02/20 22:49:58;;;;;;;7.63;3.90;;;;;;;;;;4842794;29;20030;-79
2022/02/20 22:52:24;;;;;;;7.78;4.50;;;;;;;;;;4842957;29;20073;-79
2022/02/20 22:54:51;;;;;;;8.80;4.30;;;;;;;;;;4845286;29;20026;-79
2022/02/20 22:57:17;;;;;;;9.68;4.20;;;;;;;;;;4842257;29;20124;-78
2022/02/20 22:59:43;;;;;;;10.27;4.22;;;;;;;;;;4825876;29;20030;-79
2022/02/20 23:02:12;;;;;;;6.65;3.50;;;;;;;;;;4842369;29;20391;-79
2022/02/20 23:04:38;;;;;;;7.38;3.97;;;;;;;;;;4842291;29;20030;-78
2022/02/20 23:07:04;;;;;;;7.18;3.90;;;;;;;;;;4828885;29;20581;-79
2022/02/20 23:09:31;;;;;;;7.43;3.75;;;;;;;;;;4846106;29;20030;-80
2022/02/20 23:11:57;;;;;;;7.25;3.70;;;;;;;;;;4846385;29;20391;-79
2022/02/20 23:14:23;;;;;;;8.40;4.07;;;;;;;;;;4829687;29;20034;-79
2022/02/20 23:16:49;;;;;;;9.18;4.35;;;;;;;;;;4829468;29;20041;-80
2022/02/20 23:19:15;;;;;;;10.63;5.57;;;;;;;;;;4829483;29;20112;-79
2022/02/20 23:21:42;;;;;;;7.72;4.70;;;;;;;;;;4829744;29;20054;-87
2022/02/20 23:24:08;;;;;;;9.25;5.07;;;;;;;;;;4828842;29;20117;-79
2022/02/20 23:26:34;;;;;;;7.65;4.78;;;;;;;;;;4829320;29;20057;-79
2022/02/20 23:29:00;;;;;;;10.65;5.30;;;;;;;;;;4829583;29;20065;-80
2022/02/20 23:31:26;;;;;;;11.88;5.68;;;;;;;;;;4829635;29;20042;-79
2022/02/20 23:33:52;;;;;;;16.45;6.72;;;;;;;;;;4829875;29;20041;-80
2022/02/20 23:36:19;;;;;;;10.48;5.22;;;;;;;;;;4829959;29;20038;-79
2022/02/20 23:38:45;;;;;;;9.93;5.63;;;;;;;;;;4829262;29;20034;-77
2022/02/20 23:41:13;;;;;;;9.70;6.00;;;;;;;;;;4829234;29;20034;-79
2022/02/20 23:43:39;;;;;;;11.63;6.35;;;;;;;;;;4845872;29;20424;-79
2022/02/20 23:46:06;;;;;;;12.80;6.35;;;;;;;;;;4829181;29;20056;-80
2022/02/20 23:48:32;;;;;;;12.35;5.85;;;;;;;;;;4829130;29;20479;-79
2022/02/20 23:50:59;;;;;;;12.15;6.18;;;;;;;;;;4829052;29;20030;-79
2022/02/20 23:53:25;;;;;;;10.15;5.88;;;;;;;;;;4845541;29;20190;-79
2022/02/20 23:55:51;;;;;;;20.35;9.00;;;;;;;;;;4845573;29;20041;-79
2022/02/20 23:58:17;;;;;;;35.15;15.10;;;;;;;;;;4828853;29;20037;-79
